createdAt,value
2022-10-03T00:00:43.033Z,262.18
2022-10-03T00:01:27.938Z,262.18
2022-10-03T00:02:13.033Z,263.17
2022-10-03T00:02:57.869Z,246.29
2022-10-03T00:03:43.098Z,258.21
2022-10-03T00:04:28.214Z,243.31
2022-10-03T00:05:13.281Z,246.29
2022-10-03T00:05:58.426Z,236.36
2022-10-03T00:06:43.592Z,254.23
2022-10-03T00:07:28.542Z,260.19
2022-10-03T00:08:13.520Z,252.25
2022-10-03T00:08:58.586Z,251.25
2022-10-03T00:09:43.868Z,258.21
2022-10-03T00:10:28.885Z,257.21
2022-10-03T00:11:13.728Z,257.21
2022-10-03T00:11:58.375Z,252.25
2022-10-03T00:12:43.528Z,251.25
2022-10-03T00:13:29.097Z,255.23
2022-10-03T00:14:13.811Z,251.25
2022-10-03T00:14:59.111Z,254.23
2022-10-03T00:15:44.198Z,251.25
2022-10-03T00:16:29.211Z,243.31
2022-10-03T00:17:14.144Z,254.23
2022-10-03T00:17:59.143Z,257.21
2022-10-03T00:18:44.302Z,254.23
2022-10-03T00:19:29.140Z,245.30
2022-10-03T00:20:14.308Z,234.37
2022-10-03T00:20:59.146Z,243.31
2022-10-03T00:21:44.512Z,238.34
2022-10-03T00:22:29.463Z,228.41
2022-10-03T00:23:14.321Z,248.28
2022-10-03T00:23:59.684Z,231.39
2022-10-03T00:24:44.737Z,241.32
2022-10-03T00:25:29.795Z,247.28
2022-10-03T00:26:14.568Z,238.34
2022-10-03T00:26:59.596Z,260.19
2022-10-03T00:27:44.655Z,258.21
2022-10-03T00:28:29.700Z,241.32
2022-10-03T00:29:15.014Z,252.25
2022-10-03T00:30:00.068Z,244.30
2022-10-03T00:30:44.792Z,244.30
2022-10-03T00:31:30.055Z,250.26
2022-10-03T00:32:15.201Z,257.21
2022-10-03T00:33:00.297Z,230.40
2022-10-03T00:33:44.900Z,274.10
2022-10-03T00:34:30.270Z,244.30
2022-10-03T00:35:15.221Z,267.14
2022-10-03T00:35:59.847Z,256.22
2022-10-03T00:36:45.163Z,259.20
2022-10-03T00:37:30.491Z,245.30
2022-10-03T00:38:15.553Z,272.11
2022-10-03T00:39:00.160Z,259.20
2022-10-03T00:39:45.662Z,265.16
2022-10-03T00:40:30.719Z,271.12
2022-10-03T00:41:15.506Z,261.19
2022-10-03T00:42:00.655Z,268.14
2022-10-03T00:42:45.606Z,258.21
2022-10-03T00:43:30.876Z,248.28
2022-10-03T00:44:16.145Z,266.15
2022-10-03T00:45:00.746Z,264.17
2022-10-03T00:45:46.011Z,259.20
2022-10-03T00:46:31.094Z,254.23
2022-10-03T00:47:16.026Z,267.14
2022-10-03T00:48:00.869Z,249.27
2022-10-03T00:48:46.273Z,273.10
2022-10-03T00:49:31.806Z,249.27
2022-10-03T00:50:16.054Z,263.17
2022-10-03T00:51:01.609Z,261.19
2022-10-03T00:51:47.280Z,253.24
2022-10-03T00:52:31.621Z,237.35
2022-10-03T00:53:16.501Z,256.22
2022-10-03T00:54:01.546Z,258.21
2022-10-03T00:54:47.195Z,242.32
2022-10-03T00:55:31.844Z,275.09
2022-10-03T00:56:16.867Z,257.21
2022-10-03T00:57:01.818Z,252.25
2022-10-03T00:57:48.037Z,250.26
2022-10-03T00:58:31.971Z,250.26
2022-10-03T00:59:16.634Z,246.29
2022-10-03T01:00:01.886Z,240.33
2022-10-03T01:00:46.843Z,260.19
2022-10-03T01:01:31.962Z,240.33
2022-10-03T01:02:17.303Z,254.23
2022-10-03T01:03:01.995Z,262.18
2022-10-03T01:03:47.052Z,248.28
2022-10-03T01:04:32.111Z,253.24
2022-10-03T01:05:17.271Z,249.27
2022-10-03T01:06:02.229Z,259.20
2022-10-03T01:06:47.485Z,244.30
2022-10-03T01:07:32.440Z,245.30
2022-10-03T01:08:17.199Z,231.39
2022-10-03T01:09:02.365Z,247.28
2022-10-03T01:09:47.220Z,229.41
2022-10-03T01:10:32.772Z,249.27
2022-10-03T01:11:17.518Z,251.25
2022-10-03T01:12:02.572Z,239.34
2022-10-03T01:12:47.325Z,265.16
2022-10-03T01:13:32.586Z,248.28
2022-10-03T01:14:17.791Z,239.34
2022-10-03T01:15:02.394Z,260.19
2022-10-03T01:15:47.368Z,260.19
2022-10-03T01:16:32.633Z,233.38
2022-10-03T01:17:17.977Z,255.23
2022-10-03T01:18:02.645Z,253.24
2022-10-03T01:18:47.778Z,252.25
2022-10-03T01:19:32.833Z,241.32
2022-10-03T01:20:18.607Z,248.28
2022-10-03T01:21:03.253Z,251.25
2022-10-03T01:21:47.914Z,257.21
2022-10-03T01:22:33.659Z,263.17
2022-10-03T01:23:18.328Z,258.21
2022-10-03T01:24:03.508Z,263.17
2022-10-03T01:24:48.328Z,266.15
2022-10-03T01:25:33.692Z,257.21
2022-10-03T01:26:18.446Z,261.19
2022-10-03T01:27:03.665Z,256.22
2022-10-03T01:27:48.309Z,252.25
2022-10-03T01:28:33.605Z,270.12
2022-10-03T01:29:19.390Z,250.26
2022-10-03T01:30:03.775Z,261.19
2022-10-03T01:30:48.577Z,254.23
2022-10-03T01:31:34.235Z,248.28
2022-10-03T01:32:18.893Z,257.21
2022-10-03T01:33:03.957Z,252.25
2022-10-03T01:33:48.803Z,244.30
2022-10-03T01:34:33.868Z,265.16
2022-10-03T01:35:19.354Z,261.19
2022-10-03T01:36:04.078Z,257.21
2022-10-03T01:36:49.287Z,258.21
2022-10-03T01:37:33.879Z,241.32
2022-10-03T01:38:19.450Z,257.21
2022-10-03T01:39:04.502Z,249.27
2022-10-03T01:39:49.253Z,236.36
2022-10-03T01:40:34.150Z,240.33
2022-10-03T01:41:19.367Z,246.29
2022-10-03T01:42:04.271Z,245.30
2022-10-03T01:42:49.376Z,240.33
2022-10-03T01:43:34.640Z,250.26
2022-10-03T01:44:19.696Z,240.33
2022-10-03T01:45:04.548Z,241.32
2022-10-03T01:45:49.338Z,253.24
2022-10-03T01:46:34.599Z,244.30
2022-10-03T01:47:19.534Z,270.12
2022-10-03T01:48:04.973Z,233.38
2022-10-03T01:48:50.043Z,244.30
2022-10-03T01:49:34.984Z,251.25
2022-10-03T01:50:20.144Z,244.30
2022-10-03T01:51:05.456Z,235.37
2022-10-03T01:51:50.241Z,251.25
2022-10-03T01:52:35.416Z,265.16
2022-10-03T01:53:20.368Z,250.26
2022-10-03T01:54:05.326Z,247.28
2022-10-03T01:54:50.125Z,270.12
2022-10-03T01:55:35.230Z,259.20
2022-10-03T01:56:20.492Z,261.19
2022-10-03T01:57:05.589Z,260.19
2022-10-03T01:57:50.279Z,254.23
2022-10-03T01:58:35.328Z,263.17
2022-10-03T01:59:20.515Z,250.26
2022-10-03T02:00:05.374Z,264.17
2022-10-03T02:00:50.581Z,280.05
2022-10-03T02:01:35.612Z,267.14
2022-10-03T02:02:20.668Z,276.08
2022-10-03T02:03:05.643Z,292.97
2022-10-03T02:03:50.785Z,282.04
2022-10-03T02:04:35.790Z,261.19
2022-10-03T02:05:20.761Z,274.10
2022-10-03T02:06:05.923Z,268.14
2022-10-03T02:06:51.048Z,269.13
2022-10-03T02:07:36.241Z,286.01
2022-10-03T02:08:21.293Z,277.08
2022-10-03T02:09:06.006Z,282.04
2022-10-03T02:09:51.203Z,291.97
2022-10-03T02:10:35.913Z,268.14
2022-10-03T02:11:21.524Z,256.22
2022-10-03T02:12:06.168Z,272.11
2022-10-03T02:12:51.532Z,272.11
2022-10-03T02:13:36.404Z,265.16
2022-10-03T02:14:21.545Z,277.08
2022-10-03T02:15:06.474Z,273.10
2022-10-03T02:15:51.503Z,267.14
2022-10-03T02:16:36.444Z,270.12
2022-10-03T02:17:21.492Z,273.10
2022-10-03T02:18:06.725Z,278.07
2022-10-03T02:18:51.685Z,284.03
2022-10-03T02:19:36.836Z,249.27
2022-10-03T02:20:21.793Z,264.17
2022-10-03T02:21:06.620Z,258.21
2022-10-03T02:21:52.211Z,242.32
2022-10-03T02:22:37.172Z,256.22
2022-10-03T02:23:22.125Z,270.12
2022-10-03T02:24:07.890Z,240.33
2022-10-03T02:24:52.022Z,254.23
2022-10-03T02:25:37.347Z,265.16
2022-10-03T02:26:22.262Z,248.28
2022-10-03T02:27:07.296Z,245.30
2022-10-03T02:27:52.546Z,250.26
2022-10-03T02:28:37.412Z,252.25
2022-10-03T02:29:22.262Z,255.23
2022-10-03T02:30:07.628Z,276.08
2022-10-03T02:30:52.780Z,264.17
2022-10-03T02:31:38.095Z,254.23
2022-10-03T02:32:22.688Z,252.25
2022-10-03T02:33:07.424Z,260.19
2022-10-03T02:33:52.700Z,270.12
2022-10-03T02:34:38.078Z,263.17
2022-10-03T02:35:22.810Z,275.09
2022-10-03T02:36:07.772Z,272.11
2022-10-03T02:36:53.136Z,270.12
2022-10-03T02:37:37.894Z,255.23
2022-10-03T02:38:23.242Z,272.11
2022-10-03T02:39:07.773Z,248.28
2022-10-03T02:39:53.462Z,240.33
2022-10-03T02:40:38.615Z,251.25
2022-10-03T02:41:23.685Z,251.25
2022-10-03T02:42:08.328Z,251.25
2022-10-03T02:42:53.687Z,253.24
2022-10-03T02:43:38.460Z,239.34
2022-10-03T02:44:23.557Z,255.23
2022-10-03T02:45:08.650Z,246.29
2022-10-03T02:45:53.741Z,256.22
2022-10-03T02:46:38.970Z,241.32
2022-10-03T02:47:24.027Z,219.48
2022-10-03T02:48:30.819Z,230.40
2022-10-03T02:48:54.032Z,219.48
2022-10-03T02:49:39.097Z,217.49
2022-10-03T02:50:24.278Z,208.55
2022-10-03T02:51:09.099Z,215.50
2022-10-03T02:51:54.565Z,226.43
2022-10-03T02:52:39.317Z,206.57
2022-10-03T02:53:24.270Z,219.48
2022-10-03T02:54:09.428Z,220.47
2022-10-03T02:54:54.384Z,232.39
2022-10-03T02:55:39.647Z,216.50
2022-10-03T02:56:24.789Z,206.57
2022-10-03T02:57:09.860Z,193.65
2022-10-03T02:57:54.711Z,208.55
2022-10-03T02:58:39.667Z,214.51
2022-10-03T02:59:25.029Z,164.85
2022-10-03T03:00:10.098Z,190.68
2022-10-03T03:00:54.926Z,218.48
2022-10-03T03:01:40.550Z,212.52
2022-10-03T03:02:25.045Z,232.39
2022-10-03T03:03:09.900Z,204.58
2022-10-03T03:03:54.852Z,185.71
2022-10-03T03:04:40.075Z,216.50
2022-10-03T03:05:25.277Z,225.43
2022-10-03T03:06:10.133Z,217.49
2022-10-03T03:06:55.184Z,208.55
2022-10-03T03:07:40.446Z,228.41
2022-10-03T03:08:25.301Z,224.44
2022-10-03T03:09:10.457Z,216.50
2022-10-03T03:09:55.202Z,208.55
2022-10-03T03:10:40.206Z,205.57
2022-10-03T03:11:25.830Z,205.57
2022-10-03T03:12:10.372Z,223.45
2022-10-03T03:12:55.747Z,221.46
2022-10-03T03:13:40.693Z,220.47
2022-10-03T03:14:25.750Z,208.55
2022-10-03T03:15:10.815Z,194.65
2022-10-03T03:15:55.576Z,190.68
2022-10-03T03:16:40.270Z,213.52
2022-10-03T03:17:25.981Z,205.57
2022-10-03T03:18:12.159Z,217.49
2022-10-03T03:18:55.886Z,239.34
2022-10-03T03:19:40.833Z,208.55
2022-10-03T03:20:25.790Z,237.35
2022-10-03T03:21:11.360Z,240.33
2022-10-03T03:21:56.109Z,213.52
2022-10-03T03:22:40.964Z,225.43
2022-10-03T03:23:26.119Z,192.66
2022-10-03T03:24:11.066Z,218.48
2022-10-03T03:24:56.038Z,228.41
2022-10-03T03:25:41.082Z,233.38
2022-10-03T03:26:26.703Z,226.43
2022-10-03T03:27:11.091Z,232.39
2022-10-03T03:27:56.032Z,228.41
2022-10-03T03:28:41.205Z,227.42
2022-10-03T03:29:26.413Z,232.39
2022-10-03T03:30:11.423Z,209.54
2022-10-03T03:30:56.375Z,232.87
2022-10-03T03:31:41.495Z,233.86
2022-10-03T03:32:26.427Z,237.82
2022-10-03T03:33:11.848Z,247.73
2022-10-03T03:33:56.702Z,238.81
2022-10-03T03:34:41.594Z,236.83
2022-10-03T03:35:27.033Z,219.98
2022-10-03T03:36:11.769Z,218.99
2022-10-03T03:36:56.562Z,229.89
2022-10-03T03:37:41.806Z,251.69
2022-10-03T03:38:27.350Z,228.90
2022-10-03T03:39:11.898Z,228.90
2022-10-03T03:39:57.257Z,212.06
2022-10-03T03:40:42.008Z,214.04
2022-10-03T03:41:27.282Z,203.14
2022-10-03T03:42:12.224Z,212.06
2022-10-03T03:42:57.066Z,199.17
2022-10-03T03:43:42.237Z,221.97
2022-10-03T03:44:27.298Z,229.89
2022-10-03T03:45:12.549Z,212.06
2022-10-03T03:45:57.591Z,230.88
2022-10-03T03:46:42.455Z,216.02
2022-10-03T03:47:27.644Z,235.84
2022-10-03T03:48:12.673Z,237.82
2022-10-03T03:48:57.255Z,226.92
2022-10-03T03:49:42.683Z,246.74
2022-10-03T03:50:28.251Z,242.77
2022-10-03T03:51:12.781Z,250.70
2022-10-03T03:51:58.944Z,250.70
2022-10-03T03:52:42.820Z,246.74
2022-10-03T03:53:28.176Z,241.78
2022-10-03T03:54:12.894Z,247.73
2022-10-03T03:54:58.388Z,251.69
2022-10-03T03:55:43.338Z,244.76
2022-10-03T03:56:28.499Z,240.79
2022-10-03T03:57:13.475Z,241.78
2022-10-03T03:57:58.359Z,230.88
2022-10-03T03:58:43.663Z,256.65
2022-10-03T03:59:28.825Z,250.70
2022-10-03T04:00:13.684Z,254.67
2022-10-03T04:00:58.755Z,242.77
2022-10-03T04:01:43.936Z,260.61
2022-10-03T04:02:28.583Z,255.66
2022-10-03T04:03:13.804Z,254.67
2022-10-03T04:03:58.854Z,264.57
2022-10-03T04:04:43.913Z,267.55
2022-10-03T04:05:29.090Z,249.71
2022-10-03T04:06:14.129Z,260.61
2022-10-03T04:06:59.187Z,249.71
2022-10-03T04:07:44.038Z,273.49
2022-10-03T04:08:29.091Z,266.56
2022-10-03T04:09:14.723Z,250.70
2022-10-03T04:09:59.515Z,242.77
2022-10-03T04:10:44.345Z,254.67
2022-10-03T04:11:29.728Z,266.56
2022-10-03T04:12:14.403Z,271.51
2022-10-03T04:12:59.584Z,269.53
2022-10-03T04:13:44.695Z,263.58
2022-10-03T04:14:29.676Z,264.57
2022-10-03T04:15:14.544Z,271.51
2022-10-03T04:15:59.680Z,271.51
2022-10-03T04:16:44.733Z,278.45
2022-10-03T04:17:30.089Z,271.51
2022-10-03T04:18:14.603Z,262.59
2022-10-03T04:18:59.989Z,275.47
2022-10-03T04:19:44.582Z,257.64
2022-10-03T04:20:29.999Z,285.38
2022-10-03T04:21:18.796Z,256.65
2022-10-03T04:22:00.216Z,262.59
2022-10-03T04:22:45.269Z,266.56
2022-10-03T04:23:32.374Z,263.58
2022-10-03T04:24:15.057Z,259.62
2022-10-03T04:25:00.236Z,258.63
2022-10-03T04:25:45.493Z,280.43
2022-10-03T04:26:30.345Z,257.64
2022-10-03T04:27:15.401Z,254.67
2022-10-03T04:28:00.432Z,276.47
2022-10-03T04:28:45.518Z,266.56
2022-10-03T04:29:30.668Z,270.52
2022-10-03T04:30:15.448Z,264.57
2022-10-03T04:31:00.436Z,263.58
2022-10-03T04:31:45.995Z,279.44
2022-10-03T04:32:31.308Z,271.51
2022-10-03T04:33:15.952Z,258.63
2022-10-03T04:34:00.809Z,256.65
2022-10-03T04:34:45.768Z,265.57
2022-10-03T04:35:31.328Z,250.70
2022-10-03T04:36:15.875Z,267.55
2022-10-03T04:37:01.345Z,272.50
2022-10-03T04:37:46.292Z,267.55
2022-10-03T04:38:31.967Z,271.51
2022-10-03T04:39:16.572Z,258.63
2022-10-03T04:40:01.362Z,259.62
2022-10-03T04:40:46.015Z,270.52
2022-10-03T04:41:31.578Z,261.60
2022-10-03T04:42:16.429Z,269.53
2022-10-03T04:43:01.365Z,251.69
2022-10-03T04:43:46.229Z,274.48
2022-10-03T04:44:31.596Z,252.68
2022-10-03T04:45:16.859Z,265.57
2022-10-03T04:46:01.889Z,267.55
2022-10-03T04:46:46.696Z,271.51
2022-10-03T04:47:31.821Z,279.44
2022-10-03T04:48:16.778Z,272.50
2022-10-03T04:49:01.618Z,254.67
2022-10-03T04:49:46.918Z,269.53
2022-10-03T04:50:31.945Z,275.47
2022-10-03T04:51:17.146Z,280.43
2022-10-03T04:52:02.161Z,274.48
2022-10-03T04:52:47.015Z,288.36
2022-10-03T04:53:32.116Z,266.56
2022-10-03T04:54:17.155Z,281.42
2022-10-03T04:55:02.077Z,273.49
2022-10-03T04:55:47.338Z,266.56
2022-10-03T04:56:32.598Z,264.57
2022-10-03T04:57:17.353Z,264.57
2022-10-03T04:58:05.140Z,274.48
2022-10-03T04:58:47.155Z,198.18
2022-10-03T04:59:32.586Z,274.48
2022-10-03T05:00:17.582Z,264.57
2022-10-03T05:01:02.686Z,267.55
2022-10-03T05:01:47.551Z,266.21
2022-10-03T05:02:32.893Z,289.96
2022-10-03T05:03:17.700Z,261.26
2022-10-03T05:04:02.816Z,264.23
2022-10-03T05:04:48.019Z,253.34
2022-10-03T05:05:33.275Z,263.58
2022-10-03T05:06:17.983Z,267.55
2022-10-03T05:07:03.086Z,272.14
2022-10-03T05:07:48.145Z,274.12
2022-10-03T05:08:33.609Z,261.26
2022-10-03T05:09:18.461Z,261.26
2022-10-03T05:10:06.508Z,252.35
2022-10-03T05:10:48.184Z,263.24
2022-10-03T05:11:33.424Z,258.29
2022-10-03T05:12:18.487Z,279.07
2022-10-03T05:13:03.594Z,262.25
2022-10-03T05:13:48.852Z,267.20
2022-10-03T05:14:33.830Z,256.31
2022-10-03T05:15:18.806Z,271.15
2022-10-03T05:16:03.959Z,281.05
2022-10-03T05:16:48.872Z,266.21
2022-10-03T05:17:33.768Z,262.25
2022-10-03T05:18:20.513Z,278.08
2022-10-03T05:19:03.886Z,274.12
2022-10-03T05:19:49.158Z,261.26
2022-10-03T05:20:33.791Z,274.12
2022-10-03T05:21:18.951Z,267.20
2022-10-03T05:22:04.316Z,266.21
2022-10-03T05:22:49.271Z,264.23
2022-10-03T05:23:34.145Z,251.36
2022-10-03T05:24:19.290Z,273.13
2022-10-03T05:25:04.342Z,267.20
2022-10-03T05:25:48.875Z,274.12
2022-10-03T05:26:44.999Z,253.34
2022-10-03T05:27:19.710Z,256.31
2022-10-03T05:28:04.359Z,273.13
2022-10-03T05:28:49.618Z,266.21
2022-10-03T05:29:34.676Z,261.26
2022-10-03T05:30:19.628Z,264.23
2022-10-03T05:31:04.482Z,276.10
2022-10-03T05:31:49.618Z,257.30
2022-10-03T05:32:34.533Z,264.23
2022-10-03T05:33:19.753Z,251.36
2022-10-03T05:34:05.014Z,279.07
2022-10-03T05:34:49.990Z,259.28
2022-10-03T05:35:35.021Z,272.14
2022-10-03T05:36:19.891Z,259.28
2022-10-03T05:37:05.035Z,268.18
2022-10-03T05:37:49.881Z,260.27
2022-10-03T05:38:34.976Z,259.28
2022-10-03T05:39:20.044Z,261.26
2022-10-03T05:40:05.468Z,259.28
2022-10-03T05:40:50.262Z,263.24
2022-10-03T05:41:35.164Z,233.55
2022-10-03T05:42:23.223Z,268.18
2022-10-03T05:43:05.279Z,275.11
2022-10-03T05:43:50.443Z,261.26
2022-10-03T05:44:35.723Z,263.24
2022-10-03T05:45:20.656Z,265.22
2022-10-03T05:46:05.639Z,271.15
2022-10-03T05:46:50.417Z,269.17
2022-10-03T05:47:35.923Z,269.17
2022-10-03T05:48:20.879Z,253.34
2022-10-03T05:49:06.040Z,265.22
2022-10-03T05:49:50.925Z,260.27
2022-10-03T05:50:36.048Z,253.34
2022-10-03T05:51:21.053Z,252.35
2022-10-03T05:52:06.068Z,260.27
2022-10-03T05:52:50.920Z,261.26
2022-10-03T05:53:36.179Z,266.21
2022-10-03T05:54:21.332Z,259.28
2022-10-03T05:55:06.184Z,267.20
2022-10-03T05:55:51.478Z,251.36
2022-10-03T05:56:40.779Z,269.17
2022-10-03T05:57:21.559Z,294.90
2022-10-03T05:58:06.514Z,267.20
2022-10-03T05:58:51.505Z,264.23
2022-10-03T05:59:36.520Z,265.22
2022-10-03T06:00:21.888Z,270.16
2022-10-03T06:01:06.938Z,274.12
2022-10-03T06:01:51.829Z,273.13
2022-10-03T06:02:36.906Z,260.27
2022-10-03T06:03:22.059Z,262.25
2022-10-03T06:04:06.863Z,276.10
2022-10-03T06:04:51.915Z,261.26
2022-10-03T06:05:37.155Z,258.29
2022-10-03T06:06:22.445Z,272.50
2022-10-03T06:07:07.084Z,255.32
2022-10-03T06:07:53.270Z,269.17
2022-10-03T06:08:37.607Z,274.12
2022-10-03T06:09:22.564Z,275.11
2022-10-03T06:10:07.619Z,249.38
2022-10-03T06:10:52.471Z,268.18
2022-10-03T06:11:37.946Z,249.38
2022-10-03T06:12:22.175Z,258.29
2022-10-03T06:13:07.741Z,279.07
2022-10-03T06:13:52.795Z,251.69
2022-10-03T06:14:37.958Z,265.57
2022-10-03T06:15:22.572Z,264.57
2022-10-03T06:16:08.041Z,284.39
2022-10-03T06:16:52.919Z,269.53
2022-10-03T06:17:40.999Z,276.10
2022-10-03T06:18:23.035Z,264.23
2022-10-03T06:19:08.198Z,266.21
2022-10-03T06:19:53.047Z,255.32
2022-10-03T06:20:37.893Z,242.46
2022-10-03T06:21:23.624Z,263.24
2022-10-03T06:22:08.067Z,269.17
2022-10-03T06:22:53.095Z,264.23
2022-10-03T06:23:38.232Z,266.21
2022-10-03T06:24:23.282Z,254.33
2022-10-03T06:25:08.647Z,262.25
2022-10-03T06:25:53.440Z,264.23
2022-10-03T06:26:38.492Z,267.20
2022-10-03T06:27:23.606Z,265.22
2022-10-03T06:28:08.612Z,269.17
2022-10-03T06:28:53.928Z,270.16
2022-10-03T06:29:38.850Z,261.26
2022-10-03T06:30:23.694Z,283.03
2022-10-03T06:31:08.905Z,267.20
2022-10-03T06:31:53.845Z,261.26
2022-10-03T06:32:39.007Z,267.20
2022-10-03T06:33:23.956Z,268.18
2022-10-03T06:34:09.117Z,274.12
2022-10-03T06:34:54.271Z,281.05
2022-10-03T06:35:39.233Z,267.20
2022-10-03T06:36:24.290Z,258.29
2022-10-03T06:37:09.445Z,275.11
2022-10-03T06:37:55.059Z,280.06
2022-10-03T06:38:39.354Z,272.14
2022-10-03T06:39:24.204Z,267.20
2022-10-03T06:40:09.930Z,269.17
2022-10-03T06:40:54.731Z,284.02
2022-10-03T06:41:39.987Z,258.29
2022-10-03T06:42:24.636Z,286.00
2022-10-03T06:43:09.562Z,273.13
2022-10-03T06:43:55.005Z,270.16
2022-10-03T06:44:39.883Z,270.16
2022-10-03T06:45:28.705Z,279.07
2022-10-03T06:46:09.740Z,273.13
2022-10-03T06:46:54.772Z,284.02
2022-10-03T06:47:39.928Z,278.08
2022-10-03T06:48:25.291Z,268.18
2022-10-03T06:49:10.553Z,271.15
2022-10-03T06:49:55.098Z,272.14
2022-10-03T06:50:40.361Z,267.20
2022-10-03T06:51:27.184Z,265.22
2022-10-03T06:52:10.066Z,286.00
2022-10-03T06:52:55.425Z,266.21
2022-10-03T06:53:40.627Z,262.25
2022-10-03T06:54:25.542Z,278.08
2022-10-03T06:55:10.794Z,260.27
2022-10-03T06:55:55.766Z,266.21
2022-10-03T06:56:40.637Z,253.34
2022-10-03T06:57:25.764Z,265.22
2022-10-03T06:58:10.717Z,253.34
2022-10-03T06:58:56.287Z,261.26
2022-10-03T06:59:40.934Z,268.18
2022-10-03T07:00:26.429Z,259.28
2022-10-03T07:01:11.012Z,259.28
2022-10-03T07:01:56.161Z,256.31
2022-10-03T07:02:41.312Z,272.14
2022-10-03T07:03:26.416Z,270.16
2022-10-03T07:04:11.333Z,276.10
2022-10-03T07:04:56.499Z,257.30
2022-10-03T07:05:41.690Z,258.29
2022-10-03T07:06:26.711Z,260.27
2022-10-03T07:07:11.549Z,285.01
2022-10-03T07:07:56.659Z,262.25
2022-10-03T07:08:41.882Z,258.29
2022-10-03T07:09:26.974Z,257.30
2022-10-03T07:10:11.931Z,251.36
2022-10-03T07:10:57.087Z,279.07
2022-10-03T07:11:41.995Z,256.31
2022-10-03T07:12:27.251Z,266.21
2022-10-03T07:13:12.027Z,263.24
2022-10-03T07:13:57.213Z,254.33
2022-10-03T07:14:42.095Z,277.09
2022-10-03T07:15:50.251Z,257.30
2022-10-03T07:16:26.430Z,262.25
2022-10-03T07:16:57.899Z,270.16
2022-10-03T07:17:42.492Z,257.30
2022-10-03T07:18:27.652Z,258.29
2022-10-03T07:19:12.199Z,269.17
2022-10-03T07:19:57.355Z,262.25
2022-10-03T07:20:42.309Z,269.17
2022-10-03T07:21:27.605Z,263.24
2022-10-03T07:22:12.278Z,271.15
2022-10-03T07:22:57.784Z,263.24
2022-10-03T07:23:42.741Z,279.07
2022-10-03T07:24:27.916Z,277.09
2022-10-03T07:25:12.850Z,264.23
2022-10-03T07:25:57.904Z,260.27
2022-10-03T07:26:42.661Z,262.25
2022-10-03T07:27:28.150Z,269.17
2022-10-03T07:28:13.047Z,257.30
2022-10-03T07:28:57.929Z,256.31
2022-10-03T07:29:43.251Z,270.16
2022-10-03T07:30:28.555Z,276.10
2022-10-03T07:31:12.938Z,249.38
2022-10-03T07:31:58.564Z,248.39
2022-10-03T07:32:43.515Z,260.27
2022-10-03T07:33:28.572Z,262.25
2022-10-03T07:34:13.552Z,258.29
2022-10-03T07:34:58.597Z,243.44
2022-10-03T07:35:43.640Z,272.14
2022-10-03T07:36:28.493Z,255.32
2022-10-03T07:37:13.548Z,260.27
2022-10-03T07:37:58.743Z,276.10
2022-10-03T07:38:43.866Z,258.29
2022-10-03T07:39:29.123Z,250.37
2022-10-03T07:40:13.871Z,263.24
2022-10-03T07:40:58.778Z,255.93
2022-10-03T07:41:43.581Z,280.06
2022-10-03T07:42:29.461Z,259.28
2022-10-03T07:43:14.215Z,263.24
2022-10-03T07:43:59.158Z,266.21
2022-10-03T07:44:43.598Z,261.26
2022-10-03T07:45:29.111Z,244.07
2022-10-03T07:46:14.068Z,263.84
2022-10-03T07:46:59.290Z,266.80
2022-10-03T07:47:43.849Z,260.87
2022-10-03T07:48:29.313Z,258.89
2022-10-03T07:49:18.263Z,277.67
2022-10-03T07:49:59.429Z,270.75
2022-10-03T07:50:44.667Z,266.80
2022-10-03T07:51:29.724Z,261.86
2022-10-03T07:52:14.468Z,249.01
2022-10-03T07:52:59.673Z,256.92
2022-10-03T07:53:44.485Z,262.85
2022-10-03T07:54:29.433Z,260.87
2022-10-03T07:55:14.829Z,260.87
2022-10-03T07:55:59.832Z,256.92
2022-10-03T07:56:44.813Z,269.76
2022-10-03T07:57:30.081Z,276.68
2022-10-03T07:58:14.818Z,265.81
2022-10-03T07:58:59.879Z,252.55
2022-10-03T07:59:45.144Z,252.55
2022-10-03T08:00:30.565Z,260.44
2022-10-03T08:01:15.094Z,274.71
2022-10-03T08:01:59.963Z,274.71
2022-10-03T08:02:45.374Z,263.84
2022-10-03T08:03:30.968Z,267.34
2022-10-03T08:04:15.065Z,284.11
2022-10-03T08:05:00.204Z,258.47
2022-10-03T08:05:45.182Z,280.17
2022-10-03T08:06:30.247Z,267.34
2022-10-03T08:07:15.434Z,265.81
2022-10-03T08:08:00.450Z,269.76
2022-10-03T08:08:45.161Z,288.06
2022-10-03T08:09:31.283Z,274.71
2022-10-03T08:10:15.523Z,268.78
2022-10-03T08:11:00.683Z,261.86
2022-10-03T08:11:45.730Z,250.99
2022-10-03T08:12:31.005Z,277.67
2022-10-03T08:13:15.848Z,266.36
2022-10-03T08:14:00.902Z,268.33
2022-10-03T08:14:45.789Z,254.52
2022-10-03T08:15:31.437Z,274.25
2022-10-03T08:16:16.009Z,267.34
2022-10-03T08:17:01.051Z,282.14
2022-10-03T08:17:46.083Z,270.30
2022-10-03T08:18:31.047Z,244.65
2022-10-03T08:19:16.198Z,272.28
2022-10-03T08:20:01.456Z,263.40
2022-10-03T08:20:46.417Z,262.41
2022-10-03T08:21:31.675Z,268.33
2022-10-03T08:22:16.317Z,265.37
2022-10-03T08:23:01.531Z,258.47
2022-10-03T08:23:46.331Z,259.45
2022-10-03T08:24:31.439Z,257.48
2022-10-03T08:25:16.553Z,260.44
2022-10-03T08:26:01.810Z,265.37
2022-10-03T08:26:46.669Z,264.38
2022-10-03T08:27:31.592Z,264.38
2022-10-03T08:28:16.858Z,258.47
2022-10-03T08:29:01.634Z,262.41
2022-10-03T08:29:46.798Z,277.21
2022-10-03T08:30:31.636Z,244.20
2022-10-03T08:31:17.102Z,260.94
2022-10-03T08:32:01.695Z,279.65
2022-10-03T08:32:48.679Z,273.26
2022-10-03T08:33:31.700Z,276.22
2022-10-03T08:34:17.325Z,268.33
2022-10-03T08:35:01.871Z,270.30
2022-10-03T08:35:46.827Z,277.21
2022-10-03T08:36:31.994Z,273.26
2022-10-03T08:37:17.245Z,261.92
2022-10-03T08:38:02.525Z,263.89
2022-10-03T08:38:47.303Z,276.69
2022-10-03T08:39:32.620Z,275.71
2022-10-03T08:40:17.368Z,257.00
2022-10-03T08:41:02.629Z,271.77
2022-10-03T08:41:47.682Z,261.92
2022-10-03T08:42:32.607Z,273.74
2022-10-03T08:43:17.588Z,261.92
2022-10-03T08:44:02.749Z,252.08
2022-10-03T08:44:47.806Z,255.03
2022-10-03T08:45:32.764Z,267.83
2022-10-03T08:46:18.255Z,255.03
2022-10-03T08:47:02.516Z,257.98
2022-10-03T08:47:47.952Z,274.72
2022-10-03T08:48:33.296Z,263.89
2022-10-03T08:49:18.197Z,276.69
2022-10-03T08:50:05.506Z,260.94
2022-10-03T08:50:48.259Z,260.94
2022-10-03T08:51:33.930Z,250.11
2022-10-03T08:52:18.480Z,266.85
2022-10-03T08:53:03.529Z,261.92
2022-10-03T08:53:48.386Z,258.97
2022-10-03T08:54:33.747Z,272.75
2022-10-03T08:55:18.698Z,277.68
2022-10-03T08:56:03.552Z,268.82
2022-10-03T08:56:48.611Z,268.82
2022-10-03T08:57:33.838Z,278.66
2022-10-03T08:58:18.647Z,269.80
2022-10-03T08:59:03.577Z,267.83
2022-10-03T08:59:49.043Z,269.80
2022-10-03T09:00:34.081Z,274.72
2022-10-03T09:01:18.879Z,238.29
2022-10-03T09:02:04.038Z,256.02
2022-10-03T09:03:02.112Z,272.75
2022-10-03T09:03:36.834Z,254.05
2022-10-03T09:04:19.175Z,271.77
2022-10-03T09:05:04.333Z,262.91
2022-10-03T09:05:48.962Z,271.77
2022-10-03T09:06:34.474Z,265.86
2022-10-03T09:07:20.110Z,273.74
2022-10-03T09:08:04.459Z,267.83
2022-10-03T09:08:49.730Z,272.75
2022-10-03T09:09:36.445Z,272.54
2022-10-03T09:10:19.731Z,258.81
2022-10-03T09:11:04.502Z,273.52
2022-10-03T09:11:49.544Z,290.18
2022-10-03T09:12:34.602Z,269.60
2022-10-03T09:13:20.052Z,274.50
2022-10-03T09:14:04.647Z,281.36
2022-10-03T09:14:49.757Z,264.69
2022-10-03T09:15:34.924Z,267.64
2022-10-03T09:16:20.450Z,277.44
2022-10-03T09:17:05.337Z,265.67
2022-10-03T09:17:50.395Z,262.73
2022-10-03T09:18:35.245Z,276.46
2022-10-03T09:19:20.422Z,271.56
2022-10-03T09:20:05.260Z,286.26
2022-10-03T09:20:51.131Z,284.30
2022-10-03T09:21:37.044Z,271.56
2022-10-03T09:22:20.429Z,256.85